createdAt,value
2018-01-01T00:00:44.040Z,946.95
2018-01-01T00:01:44.049Z,946.91
2018-01-01T00:02:44.031Z,947.02
2018-01-01T00:03:44.024Z,946.89
2018-01-01T00:04:44.033Z,946.89
2018-01-01T00:05:44.032Z,946.96
2018-01-01T00:06:44.021Z,946.85
2018-01-01T00:07:44.029Z,947.00
2018-01-01T00:08:44.017Z,946.90
2018-01-01T00:09:44.021Z,946.87
2018-01-01T00:10:44.028Z,946.81
2018-01-01T00:11:44.012Z,946.79
2018-01-01T00:12:44.028Z,946.79
2018-01-01T00:13:44.008Z,946.83
2018-01-01T00:14:44.006Z,946.76
2018-01-01T00:15:44.009Z,946.81
2018-01-01T00:16:44.013Z,946.83
2018-01-01T00:17:44.010Z,946.86
2018-01-01T00:18:43.999Z,946.70
2018-01-01T00:19:44.002Z,946.78
2018-01-01T00:20:43.996Z,946.80
2018-01-01T00:21:43.991Z,946.79
2018-01-01T00:22:43.991Z,946.69
2018-01-01T00:23:43.989Z,946.84
2018-01-01T00:24:43.987Z,946.83
2018-01-01T00:25:43.989Z,946.77
2018-01-01T00:26:43.991Z,946.83
2018-01-01T00:27:43.983Z,946.74
2018-01-01T00:28:43.980Z,946.81
2018-01-01T00:29:43.979Z,946.78
2018-01-01T00:30:43.993Z,946.81
2018-01-01T00:31:43.978Z,946.87
2018-01-01T00:32:43.973Z,946.78
2018-01-01T00:33:43.971Z,946.80
2018-01-01T00:34:43.968Z,946.76
2018-01-01T00:35:43.969Z,946.89
2018-01-01T00:36:43.966Z,946.83
2018-01-01T00:37:43.960Z,946.78
2018-01-01T00:38:43.960Z,946.87
2018-01-01T00:39:43.959Z,946.88
2018-01-01T00:40:43.958Z,946.91
2018-01-01T00:41:43.955Z,946.79
2018-01-01T00:42:43.966Z,946.92
2018-01-01T00:43:43.950Z,946.98
2018-01-01T00:44:43.949Z,946.85
2018-01-01T00:45:43.945Z,946.86
2018-01-01T00:46:43.946Z,946.98
2018-01-01T00:47:43.946Z,946.94
2018-01-01T00:48:43.946Z,946.90
2018-01-01T00:49:43.946Z,946.97
2018-01-01T00:50:43.937Z,946.92
2018-01-01T00:51:43.938Z,946.94
2018-01-01T00:52:43.932Z,947.00
2018-01-01T00:53:43.929Z,947.08
2018-01-01T00:54:43.936Z,947.13
2018-01-01T00:55:43.927Z,947.06
2018-01-01T00:56:43.923Z,947.20
2018-01-01T00:57:43.940Z,947.32
2018-01-01T00:58:43.919Z,947.14
2018-01-01T00:59:43.919Z,946.96
2018-01-01T01:00:43.935Z,947.04
2018-01-01T01:01:43.914Z,946.93
2018-01-01T01:02:43.913Z,947.10
2018-01-01T01:03:43.911Z,947.11
2018-01-01T01:04:43.908Z,947.11
2018-01-01T01:05:43.905Z,947.11
2018-01-01T01:06:43.904Z,947.27
2018-01-01T01:07:43.901Z,947.22
2018-01-01T01:08:43.899Z,947.15
2018-01-01T01:09:43.896Z,947.17
2018-01-01T01:10:43.895Z,947.25
2018-01-01T01:11:43.905Z,947.32
2018-01-01T01:12:43.896Z,947.39
2018-01-01T01:13:43.889Z,947.30
2018-01-01T01:14:43.885Z,947.38
2018-01-01T01:15:43.884Z,947.37
2018-01-01T01:16:43.884Z,947.43
2018-01-01T01:17:43.882Z,947.46
2018-01-01T01:18:43.878Z,947.51
2018-01-01T01:19:43.875Z,947.61
2018-01-01T01:20:43.873Z,947.53
2018-01-01T01:21:43.890Z,947.64
2018-01-01T01:22:43.871Z,947.57
2018-01-01T01:23:43.879Z,947.61
2018-01-01T01:24:43.873Z,947.61
2018-01-01T01:25:43.864Z,947.68
2018-01-01T01:26:43.861Z,947.80
2018-01-01T01:27:43.865Z,947.60
2018-01-01T01:28:43.858Z,947.63
2018-01-01T01:29:43.856Z,947.60
2018-01-01T01:30:43.853Z,947.58
2018-01-01T01:31:43.852Z,947.61
2018-01-01T01:32:43.849Z,947.49
2018-01-01T01:33:43.846Z,947.67
2018-01-01T01:34:43.844Z,947.58
2018-01-01T01:35:43.849Z,947.73
2018-01-01T01:36:43.843Z,947.72
2018-01-01T01:37:43.835Z,947.84
2018-01-01T01:38:43.834Z,947.77
2018-01-01T01:39:43.836Z,947.79
2018-01-01T01:40:43.832Z,947.82
2018-01-01T01:41:43.830Z,947.90
2018-01-01T01:42:43.827Z,948.01
2018-01-01T01:43:43.824Z,947.94
2018-01-01T01:44:43.825Z,947.97
2018-01-01T01:45:43.819Z,947.97
2018-01-01T01:46:43.818Z,947.98
2018-01-01T01:47:43.829Z,948.01
2018-01-01T01:48:43.814Z,948.08
2018-01-01T01:49:43.820Z,948.09
2018-01-01T01:50:43.809Z,948.16
2018-01-01T01:51:43.808Z,948.24
2018-01-01T01:52:43.806Z,948.08
2018-01-01T01:53:43.805Z,948.18
2018-01-01T01:54:43.801Z,948.23
2018-01-01T01:55:43.801Z,948.08
2018-01-01T01:56:43.801Z,948.06
2018-01-01T01:57:43.799Z,948.05
2018-01-01T01:58:43.792Z,948.02
2018-01-01T01:59:43.793Z,947.99
2018-01-01T02:00:43.791Z,947.99
2018-01-01T02:01:43.790Z,948.05
2018-01-01T02:02:43.784Z,947.99
2018-01-01T02:03:43.783Z,947.97
2018-01-01T02:04:43.788Z,948.03
2018-01-01T02:05:43.781Z,947.99
2018-01-01T02:06:43.776Z,947.95
2018-01-01T02:07:43.774Z,947.99
2018-01-01T02:08:43.779Z,947.82
2018-01-01T02:09:43.769Z,947.81
2018-01-01T02:10:43.766Z,947.82
2018-01-01T02:11:43.764Z,947.94
2018-01-01T02:12:43.764Z,947.93
2018-01-01T02:13:43.762Z,947.93
2018-01-01T02:14:43.758Z,947.88
2018-01-01T02:15:43.804Z,947.93
2018-01-01T02:16:43.753Z,947.93
2018-01-01T02:17:43.754Z,947.99
2018-01-01T02:18:43.752Z,948.05
2018-01-01T02:19:43.747Z,947.92
2018-01-01T02:20:43.746Z,947.99
2018-01-01T02:21:43.743Z,947.92
2018-01-01T02:22:43.740Z,947.97
2018-01-01T02:23:43.738Z,947.90
2018-01-01T02:24:43.738Z,947.94
2018-01-01T02:25:43.733Z,947.86
2018-01-01T02:26:43.732Z,947.99
2018-01-01T02:27:43.731Z,948.11
2018-01-01T02:28:43.728Z,947.86
2018-01-01T02:29:43.725Z,947.95
2018-01-01T02:30:43.729Z,948.08
2018-01-01T02:31:43.724Z,948.09
2018-01-01T02:32:43.719Z,948.14
2018-01-01T02:33:43.717Z,948.13
2018-01-01T02:34:43.716Z,948.20
2018-01-01T02:35:43.710Z,948.26
2018-01-01T02:36:43.709Z,948.16
2018-01-01T02:37:43.707Z,948.18
2018-01-01T02:38:43.730Z,948.20
2018-01-01T02:39:43.701Z,948.22
2018-01-01T02:40:43.701Z,948.25
2018-01-01T02:41:43.707Z,948.28
2018-01-01T02:42:43.713Z,948.34
2018-01-01T02:43:43.693Z,948.37
2018-01-01T02:44:43.691Z,948.43
2018-01-01T02:45:43.702Z,948.43
2018-01-01T02:46:43.687Z,948.63
2018-01-01T02:47:43.686Z,948.56
2018-01-01T02:48:43.685Z,948.58
2018-01-01T02:49:43.682Z,948.59
2018-01-01T02:50:43.692Z,948.53
2018-01-01T02:51:43.675Z,948.58
2018-01-01T02:52:43.677Z,948.69
2018-01-01T02:53:43.671Z,948.66
2018-01-01T02:54:43.670Z,948.78
2018-01-01T02:55:45.628Z,948.73
2018-01-01T02:56:43.665Z,948.77
2018-01-01T02:57:43.663Z,948.73
2018-01-01T02:58:43.663Z,948.74
2018-01-01T02:59:43.660Z,948.84
2018-01-01T03:00:43.663Z,948.78
2018-01-01T03:01:43.652Z,948.70
2018-01-01T03:02:43.650Z,948.78
2018-01-01T03:03:43.649Z,948.78
2018-01-01T03:04:43.649Z,948.79
2018-01-01T03:05:43.643Z,948.72
2018-01-01T03:06:43.644Z,948.70
2018-01-01T03:07:43.640Z,948.69
2018-01-01T03:08:43.638Z,948.77
2018-01-01T03:09:43.650Z,948.69
2018-01-01T03:10:43.634Z,948.62
2018-01-01T03:11:43.634Z,948.58
2018-01-01T03:12:43.630Z,948.62
2018-01-01T03:13:43.626Z,948.74
2018-01-01T03:14:43.623Z,948.70
2018-01-01T03:15:43.626Z,948.93
2018-01-01T03:16:43.619Z,948.61
2018-01-01T03:17:43.626Z,948.68
2018-01-01T03:18:43.622Z,948.62
2018-01-01T03:19:43.612Z,948.66
2018-01-01T03:20:43.616Z,948.65
2018-01-01T03:21:43.613Z,948.62
2018-01-01T03:22:43.609Z,948.54
2018-01-01T03:23:43.609Z,948.52
2018-01-01T03:24:43.601Z,948.56
2018-01-01T03:25:43.598Z,948.55
2018-01-01T03:26:43.598Z,948.62
2018-01-01T03:27:43.596Z,948.62
2018-01-01T03:28:43.593Z,948.67
2018-01-01T03:29:43.593Z,948.64
2018-01-01T03:30:43.587Z,948.67
2018-01-01T03:31:43.583Z,948.71
2018-01-01T03:32:43.583Z,948.73
2018-01-01T03:33:43.580Z,948.64
2018-01-01T03:34:43.577Z,948.75
2018-01-01T03:35:43.575Z,948.74
2018-01-01T03:36:43.577Z,948.79
2018-01-01T03:37:43.577Z,948.73
2018-01-01T03:38:43.566Z,948.72
2018-01-01T03:39:43.567Z,948.78
2018-01-01T03:40:43.564Z,948.85
2018-01-01T03:41:43.562Z,948.92
2018-01-01T03:42:43.560Z,948.89
2018-01-01T03:43:43.556Z,948.79
2018-01-01T03:44:43.562Z,948.88
2018-01-01T03:45:43.549Z,948.80
2018-01-01T03:46:43.549Z,948.73
2018-01-01T03:47:43.545Z,948.87
2018-01-01T03:48:43.546Z,948.71
2018-01-01T03:49:43.539Z,948.75
2018-01-01T03:50:43.539Z,948.88
2018-01-01T03:51:43.543Z,948.85
2018-01-01T03:52:43.535Z,948.85
2018-01-01T03:53:43.531Z,948.76
2018-01-01T03:54:43.529Z,948.85
2018-01-01T03:55:43.527Z,948.75
2018-01-01T03:56:43.524Z,948.76
2018-01-01T03:57:43.531Z,948.73
2018-01-01T03:58:43.517Z,948.75
2018-01-01T03:59:43.520Z,948.79
2018-01-01T04:00:43.515Z,948.75
2018-01-01T04:01:43.517Z,948.89
2018-01-01T04:02:43.510Z,948.76
2018-01-01T04:03:43.506Z,948.72
2018-01-01T04:04:43.506Z,948.74
2018-01-01T04:05:43.501Z,948.87
2018-01-01T04:06:43.508Z,948.80
2018-01-01T04:07:43.498Z,948.82
2018-01-01T04:08:43.495Z,948.72
2018-01-01T04:09:43.494Z,948.68
2018-01-01T04:10:43.489Z,948.77
2018-01-01T04:11:43.486Z,948.89
2018-01-01T04:12:43.489Z,948.87
2018-01-01T04:13:43.482Z,948.83
2018-01-01T04:14:43.479Z,948.92
2018-01-01T04:15:43.477Z,948.92
2018-01-01T04:16:43.474Z,948.84
2018-01-01T04:17:43.471Z,948.90
2018-01-01T04:18:43.469Z,948.86
2018-01-01T04:19:43.468Z,948.96
2018-01-01T04:20:43.465Z,948.84
2018-01-01T04:21:43.461Z,948.97
2018-01-01T04:22:43.456Z,948.90
2018-01-01T04:23:43.459Z,948.83
2018-01-01T04:24:43.458Z,948.96
2018-01-01T04:25:43.475Z,948.90
2018-01-01T04:26:43.447Z,949.02
2018-01-01T04:27:43.452Z,948.99
2018-01-01T04:28:43.444Z,948.82
2018-01-01T04:29:43.441Z,948.93
2018-01-01T04:30:43.440Z,948.98
2018-01-01T04:31:43.439Z,949.02
2018-01-01T04:32:43.434Z,948.92
2018-01-01T04:33:43.430Z,948.93
2018-01-01T04:34:43.427Z,949.03
2018-01-01T04:35:43.426Z,948.89
2018-01-01T04:36:43.430Z,948.94
2018-01-01T04:37:43.419Z,949.02
2018-01-01T04:38:43.413Z,949.05
2018-01-01T04:39:43.413Z,949.12
2018-01-01T04:40:43.412Z,949.14
2018-01-01T04:41:43.407Z,949.17
2018-01-01T04:42:43.408Z,949.06
2018-01-01T04:43:43.404Z,949.06
2018-01-01T04:44:43.405Z,949.07
2018-01-01T04:45:43.397Z,949.07
2018-01-01T04:46:43.395Z,949.15
2018-01-01T04:47:43.392Z,949.19
2018-01-01T04:48:43.390Z,949.16
2018-01-01T04:49:43.389Z,949.17
2018-01-01T04:50:43.383Z,949.10
2018-01-01T04:51:43.383Z,949.07
2018-01-01T04:52:43.378Z,949.15
2018-01-01T04:53:43.375Z,949.15
2018-01-01T04:54:43.375Z,949.12
2018-01-01T04:55:43.370Z,949.13
2018-01-01T04:56:43.369Z,949.17
2018-01-01T04:57:43.379Z,949.30
2018-01-01T04:58:43.369Z,949.28
2018-01-01T04:59:43.362Z,949.38
2018-01-01T05:00:43.357Z,949.25
2018-01-01T05:01:43.383Z,949.35
2018-01-01T05:02:43.351Z,949.31
2018-01-01T05:03:43.355Z,949.39
2018-01-01T05:04:43.348Z,949.32
2018-01-01T05:05:43.344Z,949.39
2018-01-01T05:06:43.340Z,949.44
2018-01-01T05:07:43.337Z,949.43
2018-01-01T05:08:43.333Z,949.49
2018-01-01T05:09:43.331Z,949.43
2018-01-01T05:10:43.331Z,949.34
2018-01-01T05:11:43.326Z,949.43
2018-01-01T05:12:43.324Z,949.40
2018-01-01T05:13:43.325Z,949.36
2018-01-01T05:14:43.318Z,949.30
2018-01-01T05:15:43.323Z,949.33
2018-01-01T05:16:43.312Z,949.37
2018-01-01T05:17:43.311Z,949.34
2018-01-01T05:18:43.306Z,949.36
2018-01-01T05:19:43.304Z,949.36
2018-01-01T05:20:43.304Z,949.40
2018-01-01T05:21:43.296Z,949.38
2018-01-01T05:22:43.302Z,949.43
2018-01-01T05:23:43.290Z,949.53
2018-01-01T05:24:43.290Z,949.44
2018-01-01T05:25:43.364Z,949.39
2018-01-01T05:26:43.284Z,949.35
2018-01-01T05:27:43.280Z,949.29
2018-01-01T05:28:43.281Z,949.28
2018-01-01T05:29:43.276Z,949.27
2018-01-01T05:30:43.276Z,949.29
2018-01-01T05:31:43.268Z,949.31
2018-01-01T05:32:43.265Z,949.46
2018-01-01T05:33:43.266Z,949.45
2018-01-01T05:34:43.265Z,949.40
2018-01-01T05:35:43.270Z,949.54
2018-01-01T05:36:43.259Z,949.43
2018-01-01T05:37:43.251Z,949.51
2018-01-01T05:38:43.248Z,949.45
2018-01-01T05:39:43.265Z,949.42
2018-01-01T05:40:43.254Z,949.41
2018-01-01T05:41:43.239Z,949.55
2018-01-01T05:42:43.234Z,949.48
2018-01-01T05:43:43.235Z,949.51
2018-01-01T05:44:43.230Z,949.56
2018-01-01T05:45:43.246Z,949.60
2018-01-01T05:46:43.228Z,949.64
2018-01-01T05:47:43.223Z,949.71
2018-01-01T05:48:43.263Z,949.71
2018-01-01T05:49:43.216Z,949.81
2018-01-01T05:50:43.249Z,949.90
2018-01-01T05:51:43.212Z,949.89
2018-01-01T05:52:43.227Z,949.81
2018-01-01T05:53:43.205Z,949.82
2018-01-01T05:54:43.201Z,949.82
2018-01-01T05:55:43.198Z,949.93
2018-01-01T05:56:43.196Z,950.04
2018-01-01T05:57:43.204Z,949.99
2018-01-01T05:58:43.188Z,950.13
2018-01-01T05:59:43.186Z,950.22
2018-01-01T06:00:43.186Z,950.33
2018-01-01T06:01:43.184Z,950.38
2018-01-01T06:02:43.176Z,950.25
2018-01-01T06:03:43.174Z,950.30
2018-01-01T06:04:43.172Z,950.46
2018-01-01T06:05:43.177Z,950.61
2018-01-01T06:06:43.165Z,950.79
2018-01-01T06:07:43.161Z,950.76
2018-01-01T06:08:43.155Z,950.68
2018-01-01T06:09:43.154Z,950.53
2018-01-01T06:10:43.149Z,950.36
2018-01-01T06:11:43.162Z,950.42
2018-01-01T06:12:43.145Z,950.33
2018-01-01T06:13:43.140Z,950.51
2018-01-01T06:14:43.137Z,950.49
2018-01-01T06:15:43.143Z,950.65
2018-01-01T06:16:43.150Z,950.73
2018-01-01T06:17:43.126Z,950.76
2018-01-01T06:18:43.122Z,950.71
2018-01-01T06:19:43.118Z,950.76
2018-01-01T06:20:43.114Z,950.70
2018-01-01T06:21:43.111Z,950.75
2018-01-01T06:22:43.135Z,950.77
2018-01-01T06:23:43.101Z,950.68
2018-01-01T06:24:43.099Z,950.88
2018-01-01T06:25:43.094Z,950.71
2018-01-01T06:26:43.090Z,950.88
2018-01-01T06:27:43.087Z,950.84
2018-01-01T06:28:43.095Z,950.72
2018-01-01T06:29:43.077Z,950.77
2018-01-01T06:30:43.073Z,950.87
2018-01-01T06:31:43.070Z,950.74
2018-01-01T06:32:43.065Z,950.97
2018-01-01T06:33:43.065Z,950.97
2018-01-01T06:34:43.066Z,951.00
2018-01-01T06:35:43.059Z,951.07
2018-01-01T06:36:43.049Z,950.81
2018-01-01T06:37:43.043Z,951.07
2018-01-01T06:38:43.039Z,951.01
2018-01-01T06:39:43.035Z,951.06
2018-01-01T06:40:43.039Z,951.01
2018-01-01T06:41:43.027Z,950.87
2018-01-01T06:42:43.022Z,950.82
2018-01-01T06:43:43.030Z,950.89
2018-01-01T06:44:43.067Z,950.81
2018-01-01T06:45:43.009Z,950.75
2018-01-01T06:46:43.004Z,950.82
2018-01-01T06:47:43.001Z,950.82
2018-01-01T06:48:42.996Z,950.89
2018-01-01T06:49:42.990Z,950.79
2018-01-01T06:50:42.985Z,950.72
2018-01-01T06:51:42.983Z,950.80
2018-01-01T06:52:42.979Z,950.71
2018-01-01T06:53:42.971Z,950.86
2018-01-01T06:54:42.969Z,950.76
2018-01-01T06:55:42.964Z,950.72
2018-01-01T06:56:42.991Z,950.77
2018-01-01T06:57:42.954Z,950.77
2018-01-01T06:58:42.949Z,950.73
2018-01-01T06:59:42.944Z,950.68
2018-01-01T07:00:42.938Z,950.66
2018-01-01T07:01:42.935Z,950.72
2018-01-01T07:02:42.957Z,950.80
2018-01-01T07:03:42.925Z,950.74
2018-01-01T07:04:42.923Z,950.78
2018-01-01T07:05:42.916Z,950.79
2018-01-01T07:06:42.914Z,950.88
2018-01-01T07:07:42.914Z,950.86
2018-01-01T07:08:42.904Z,950.91
2018-01-01T07:09:42.896Z,950.84
2018-01-01T07:10:42.893Z,950.88
2018-01-01T07:11:42.910Z,950.98
2018-01-01T07:12:42.884Z,950.99
2018-01-01T07:13:42.880Z,950.95
2018-01-01T07:14:42.881Z,951.03
2018-01-01T07:15:42.871Z,950.93
2018-01-01T07:16:42.882Z,950.95
2018-01-01T07:17:42.883Z,951.06
2018-01-01T07:18:42.858Z,950.96
2018-01-01T07:19:42.857Z,951.01
2018-01-01T07:20:42.899Z,951.02
2018-01-01T07:21:42.843Z,951.09
2018-01-01T07:22:42.860Z,951.04
2018-01-01T07:23:42.938Z,951.05
2018-01-01T07:24:42.835Z,951.12
2018-01-01T07:25:43.340Z,951.09
2018-01-01T07:26:42.818Z,951.08
2018-01-01T07:27:42.829Z,951.15
2018-01-01T07:28:42.810Z,951.11
2018-01-01T07:29:42.916Z,951.18
2018-01-01T07:30:42.802Z,951.11
2018-01-01T07:31:42.908Z,951.01
2018-01-01T07:32:42.794Z,951.15
2018-01-01T07:33:42.788Z,951.13
2018-01-01T07:34:42.781Z,951.10
2018-01-01T07:35:42.860Z,951.18
2018-01-01T07:36:42.777Z,951.22
2018-01-01T07:37:42.769Z,951.19
2018-01-01T07:38:42.874Z,951.20
2018-01-01T07:39:42.791Z,951.16
2018-01-01T07:40:42.947Z,951.16
2018-01-01T07:41:42.753Z,951.11
2018-01-01T07:42:42.806Z,951.07
2018-01-01T07:43:42.743Z,951.09
2018-01-01T07:44:42.748Z,951.14
2018-01-01T07:45:42.733Z,951.07
2018-01-01T07:46:42.729Z,951.10
2018-01-01T07:47:42.729Z,951.13
2018-01-01T07:48:42.802Z,951.14
2018-01-01T07:49:42.717Z,951.05
2018-01-01T07:50:42.710Z,951.12
2018-01-01T07:51:42.710Z,951.17
2018-01-01T07:52:42.961Z,951.08
2018-01-01T07:53:42.696Z,951.16
2018-01-01T07:54:42.697Z,951.12
2018-01-01T07:55:42.689Z,951.21
2018-01-01T07:56:42.698Z,951.18
2018-01-01T07:57:42.685Z,951.22
2018-01-01T07:58:42.680Z,951.22
2018-01-01T07:59:42.669Z,951.22
2018-01-01T08:00:42.667Z,951.32
2018-01-01T08:01:42.662Z,951.29
2018-01-01T08:02:42.657Z,951.25
2018-01-01T08:03:42.677Z,951.27
2018-01-01T08:04:42.651Z,951.30
2018-01-01T08:05:42.643Z,951.37
2018-01-01T08:06:42.645Z,951.37
2018-01-01T08:07:42.633Z,951.35
2018-01-01T08:08:42.637Z,951.36
2018-01-01T08:09:42.626Z,951.42
2018-01-01T08:10:42.688Z,951.48
2018-01-01T08:11:42.615Z,951.46
2018-01-01T08:12:42.621Z,951.42
2018-01-01T08:13:42.607Z,951.47
2018-01-01T08:14:42.602Z,951.62
2018-01-01T08:15:44.414Z,951.48
2018-01-01T08:16:42.603Z,951.55
2018-01-01T08:17:42.591Z,951.53
2018-01-01T08:18:42.606Z,951.53
2018-01-01T08:19:42.578Z,951.63
2018-01-01T08:20:42.578Z,951.52
2018-01-01T08:21:42.573Z,951.57
2018-01-01T08:22:42.568Z,951.51
2018-01-01T08:23:42.564Z,951.60
2018-01-01T08:24:42.559Z,951.61
2018-01-01T08:25:42.556Z,951.49
2018-01-01T08:26:42.551Z,951.53
2018-01-01T08:27:42.547Z,951.55
2018-01-01T08:28:42.553Z,951.53
2018-01-01T08:29:42.536Z,951.56
2018-01-01T08:30:42.535Z,951.56
2018-01-01T08:31:42.529Z,951.60
2018-01-01T08:32:42.526Z,951.59
2018-01-01T08:33:42.519Z,951.60
2018-01-01T08:34:42.515Z,951.66
2018-01-01T08:35:42.512Z,951.66
2018-01-01T08:36:42.520Z,951.70
2018-01-01T08:37:42.506Z,951.64
2018-01-01T08:38:42.497Z,951.68
2018-01-01T08:39:42.520Z,951.64
2018-01-01T08:40:42.493Z,951.65
2018-01-01T08:41:42.486Z,951.69
2018-01-01T08:42:42.484Z,951.70
2018-01-01T08:43:42.486Z,951.71
2018-01-01T08:44:42.479Z,951.73
2018-01-01T08:45:42.468Z,951.75
2018-01-01T08:46:42.464Z,951.67
2018-01-01T08:47:42.467Z,951.70
2018-01-01T08:48:42.461Z,951.66
2018-01-01T08:49:42.451Z,951.58
2018-01-01T08:50:42.499Z,951.79
2018-01-01T08:51:42.441Z,951.82
2018-01-01T08:52:42.465Z,951.80
2018-01-01T08:53:42.436Z,951.74
2018-01-01T08:54:42.479Z,951.73
2018-01-01T08:55:42.426Z,951.68
2018-01-01T08:56:42.425Z,951.61
2018-01-01T08:57:42.445Z,951.72
2018-01-01T08:58:42.411Z,951.70
2018-01-01T08:59:42.413Z,951.67
2018-01-01T09:00:42.404Z,951.72
2018-01-01T09:01:42.402Z,951.69
2018-01-01T09:02:42.398Z,951.68
2018-01-01T09:03:42.391Z,951.59
2018-01-01T09:04:42.387Z,951.65
2018-01-01T09:05:42.382Z,951.59
2018-01-01T09:06:42.388Z,951.59
2018-01-01T09:07:42.374Z,951.57
2018-01-01T09:08:42.397Z,951.62
2018-01-01T09:09:42.367Z,951.57
2018-01-01T09:10:42.380Z,951.67
2018-01-01T09:11:42.371Z,951.70
2018-01-01T09:12:42.356Z,951.67
2018-01-01T09:13:42.392Z,951.83
2018-01-01T09:14:42.348Z,951.58
2018-01-01T09:15:42.357Z,951.49
2018-01-01T09:16:42.342Z,951.54
2018-01-01T09:17:42.337Z,951.47
2018-01-01T09:18:42.333Z,951.59
2018-01-01T09:19:42.350Z,951.60
2018-01-01T09:20:42.332Z,951.57
2018-01-01T09:21:42.319Z,951.60
2018-01-01T09:22:42.322Z,951.65
2018-01-01T09:23:42.311Z,951.69
2018-01-01T09:24:42.361Z,951.66
2018-01-01T09:25:42.324Z,951.55
2018-01-01T09:26:42.302Z,951.58
2018-01-01T09:27:42.295Z,951.67
2018-01-01T09:28:42.311Z,951.49
2018-01-01T09:29:42.288Z,951.56
2018-01-01T09:30:42.284Z,951.94
2018-01-01T09:31:42.429Z,951.63
2018-01-01T09:32:42.345Z,951.48
2018-01-01T09:33:42.277Z,951.63
2018-01-01T09:34:42.271Z,951.57
2018-01-01T09:35:42.265Z,951.60
2018-01-01T09:36:42.294Z,951.61
2018-01-01T09:37:42.264Z,951.61
2018-01-01T09:38:42.350Z,951.49
2018-01-01T09:39:42.331Z,951.52
2018-01-01T09:40:42.264Z,951.46
2018-01-01T09:41:42.246Z,951.54
2018-01-01T09:42:42.339Z,951.48
2018-01-01T09:43:42.240Z,951.46
2018-01-01T09:44:42.238Z,951.47
2018-01-01T09:45:42.245Z,951.39
2018-01-01T09:46:42.229Z,951.47
2018-01-01T09:47:42.232Z,951.42
2018-01-01T09:48:42.227Z,951.44
2018-01-01T09:49:42.240Z,951.39
2018-01-01T09:50:42.234Z,951.28
2018-01-01T09:51:42.212Z,951.32
2018-01-01T09:52:42.214Z,951.34
2018-01-01T09:53:42.207Z,951.31
2018-01-01T09:54:42.202Z,951.24
2018-01-01T09:55:42.202Z,951.33
2018-01-01T09:56:42.202Z,951.29
2018-01-01T09:57:42.192Z,951.25
2018-01-01T09:58:42.196Z,951.17
2018-01-01T09:59:42.186Z,951.27
2018-01-01T10:00:42.195Z,951.23
2018-01-01T10:01:42.179Z,951.20
2018-01-01T10:02:42.172Z,951.17
2018-01-01T10:03:42.181Z,951.25
2018-01-01T10:04:42.182Z,951.16
2018-01-01T10:05:42.163Z,951.10
2018-01-01T10:06:42.184Z,951.25
2018-01-01T10:07:42.155Z,951.12
2018-01-01T10:08:42.215Z,951.14
2018-01-01T10:09:42.158Z,951.12
2018-01-01T10:10:42.142Z,951.08
2018-01-01T10:11:42.189Z,951.02
2018-01-01T10:12:42.137Z,951.54
2018-01-01T10:13:42.133Z,951.52
2018-01-01T10:14:42.161Z,951.74
2018-01-01T10:15:42.133Z,951.24
2018-01-01T10:16:42.134Z,951.20
2018-01-01T10:17:42.123Z,951.26
2018-01-01T10:18:42.122Z,951.28
2018-01-01T10:19:42.118Z,951.21
2018-01-01T10:20:42.117Z,951.23
2018-01-01T10:21:42.113Z,951.30
2018-01-01T10:22:42.111Z,951.30
2018-01-01T10:23:42.109Z,951.55
2018-01-01T10:24:42.109Z,951.76
2018-01-01T10:25:42.104Z,951.86
2018-01-01T10:26:42.104Z,951.88
2018-01-01T10:27:42.113Z,951.44
2018-01-01T10:28:42.104Z,951.95
2018-01-01T10:29:42.106Z,951.97
2018-01-01T10:30:42.105Z,951.94
2018-01-01T10:31:42.116Z,951.89
2018-01-01T10:32:42.106Z,952.02
2018-01-01T10:33:42.106Z,951.55
2018-01-01T10:34:42.109Z,951.70
2018-01-01T10:35:42.117Z,952.11
2018-01-01T10:36:42.118Z,952.01
2018-01-01T10:37:42.122Z,951.97
2018-01-01T10:38:42.130Z,952.08
2018-01-01T10:39:42.129Z,952.14
2018-01-01T10:40:42.136Z,952.19
2018-01-01T10:41:42.139Z,951.70
2018-01-01T10:42:42.149Z,951.52
2018-01-01T10:43:42.150Z,951.48
2018-01-01T10:44:42.156Z,951.50
2018-01-01T10:45:42.161Z,951.45
2018-01-01T10:46:42.173Z,951.29
2018-01-01T10:47:42.169Z,951.48
2018-01-01T10:48:42.170Z,951.42
2018-01-01T10:49:42.170Z,951.46
2018-01-01T10:50:42.175Z,951.46
2018-01-01T10:51:42.179Z,951.45
2018-01-01T10:52:42.206Z,951.45
2018-01-01T10:53:42.180Z,951.27
2018-01-01T10:54:42.178Z,951.57
2018-01-01T10:55:42.178Z,951.43
2018-01-01T10:56:42.178Z,951.37
2018-01-01T10:57:42.178Z,951.29
2018-01-01T10:58:42.175Z,951.30
2018-01-01T10:59:42.188Z,951.29
2018-01-01T11:00:42.171Z,951.13
2018-01-01T11:01:42.173Z,951.19
2018-01-01T11:02:42.178Z,951.13
2018-01-01T11:03:42.172Z,951.20
2018-01-01T11:04:42.177Z,951.15
2018-01-01T11:05:42.166Z,951.14
2018-01-01T11:06:42.165Z,951.11
2018-01-01T11:07:42.160Z,951.05
2018-01-01T11:08:42.202Z,951.07
2018-01-01T11:09:42.161Z,950.99
2018-01-01T11:10:42.161Z,950.98
2018-01-01T11:11:42.153Z,951.04
2018-01-01T11:12:42.151Z,950.87
2018-01-01T11:13:42.149Z,950.74
2018-01-01T11:14:42.146Z,950.89
2018-01-01T11:15:42.154Z,950.91
2018-01-01T11:16:42.140Z,950.83
2018-01-01T11:17:42.140Z,951.02
2018-01-01T11:18:42.148Z,951.00
2018-01-01T11:19:42.132Z,950.88
2018-01-01T11:20:42.133Z,951.02
2018-01-01T11:21:42.129Z,950.88
2018-01-01T11:22:42.125Z,950.94
2018-01-01T11:23:42.123Z,950.98
2018-01-01T11:24:42.119Z,950.93
2018-01-01T11:25:42.131Z,951.00
2018-01-01T11:26:42.122Z,951.01
2018-01-01T11:27:42.110Z,950.87
2018-01-01T11:28:42.107Z,950.90
2018-01-01T11:29:42.104Z,951.00
2018-01-01T11:30:42.102Z,950.99
2018-01-01T11:31:42.098Z,950.91
2018-01-01T11:32:42.096Z,950.91
2018-01-01T11:33:42.095Z,950.98
2018-01-01T11:34:42.088Z,950.95
2018-01-01T11:35:42.096Z,950.84
2018-01-01T11:36:42.081Z,950.99
2018-01-01T11:37:42.081Z,950.88
2018-01-01T11:38:42.075Z,950.83
2018-01-01T11:39:42.075Z,950.89
2018-01-01T11:40:42.071Z,950.70
2018-01-01T11:41:42.065Z,950.76
2018-01-01T11:42:42.058Z,950.65
2018-01-01T11:43:42.058Z,950.64
2018-01-01T11:44:42.054Z,950.74
2018-01-01T11:45:42.049Z,950.71
2018-01-01T11:46:42.057Z,950.80
2018-01-01T11:47:42.045Z,950.86
2018-01-01T11:48:42.040Z,950.78
2018-01-01T11:49:42.042Z,950.80
2018-01-01T11:50:42.033Z,950.87
2018-01-01T11:51:42.029Z,950.81
2018-01-01T11:52:42.025Z,950.81
2018-01-01T11:53:42.031Z,950.80
2018-01-01T11:54:42.015Z,950.76
2018-01-01T11:55:42.026Z,950.73
2018-01-01T11:56:42.020Z,950.83
2018-01-01T11:57:42.016Z,950.79
2018-01-01T11:58:42.004Z,950.95
2018-01-01T11:59:41.999Z,950.96
2018-01-01T12:00:41.994Z,950.94
2018-01-01T12:01:41.993Z,950.93
2018-01-01T12:02:42.011Z,950.94
2018-01-01T12:03:41.988Z,951.00
2018-01-01T12:04:41.985Z,950.96
2018-01-01T12:05:41.979Z,950.96
2018-01-01T12:06:41.977Z,951.03
2018-01-01T12:07:41.973Z,951.02
2018-01-01T12:08:41.978Z,950.87
2018-01-01T12:09:41.964Z,950.91
2018-01-01T12:10:41.961Z,950.88
2018-01-01T12:11:41.962Z,950.85
2018-01-01T12:12:41.955Z,950.86
2018-01-01T12:13:41.962Z,950.85
2018-01-01T12:14:41.946Z,950.89
2018-01-01T12:15:41.951Z,950.81
2018-01-01T12:16:41.944Z,950.79
2018-01-01T12:17:41.946Z,950.80
2018-01-01T12:18:41.933Z,950.80
2018-01-01T12:19:41.930Z,950.72
2018-01-01T12:20:41.927Z,950.71
2018-01-01T12:21:41.923Z,950.65
2018-01-01T12:22:41.924Z,950.71
2018-01-01T12:23:41.924Z,950.65
2018-01-01T12:24:41.911Z,950.66
2018-01-01T12:25:41.909Z,950.57
2018-01-01T12:26:41.915Z,950.61
2018-01-01T12:27:41.903Z,950.63
2018-01-01T12:28:41.899Z,950.59